Time;durP1;ratioP1;P1;durP2;ratioP2;P2;SDS_P1;SDS_P2;PMS_P1;PMS_P2;Temp;Humidity;BMP_temperature;BMP_pressure;BME280_temperature;BME280_humidity;BME280_pressure;Samples;Min_cycle;Max_cycle;Signal;HPM_P1;HPM_P2
2023/03/10 00:00:51;;;;;;;;;;;;;;;;;;5063633;28;19915;-44
2023/03/10 00:03:17;;;;;;;;;;;;;;;;;;5072534;28;19919;-45
2023/03/10 00:05:43;;;;;;;;;;;;;;;;;;5063742;28;20381;-44
2023/03/10 00:08:09;;;;;;;;;;;;;;;;;;5062106;28;20019;-44
2023/03/10 00:10:35;;;;;;;;;;;;;;;;;;5055685;28;20109;-43
2023/03/10 00:13:01;;;;;;;;;;;;;;;;;;5060525;28;19924;-44
2023/03/10 00:15:26;;;;;;;;;;;;;;;;;;5061383;28;19912;-43
2023/03/10 00:17:55;;;;;;;;;;;;;;;;;;5072482;28;19919;-44
2023/03/10 00:20:21;;;;;;;;;;;;;;;;;;5069194;28;20274;-45
2023/03/10 00:22:47;;;;;;;;;;;;;;;;;;5061574;28;19916;-44
2023/03/10 00:25:14;;;;;;;;;;;;;;;;;;5052443;28;20034;-44
2023/03/10 00:27:40;;;;;;;;;;;;;;;;;;5059981;28;19935;-43
2023/03/10 00:30:06;;;;;;;;;;;;;;;;;;5069520;28;19932;-43
2023/03/10 00:32:31;;;;;;;;;;;;;;;;;;5071101;28;19927;-43
2023/03/10 00:34:57;;;;;;;;;;;;;;;;;;5059203;28;20027;-44
2023/03/10 00:37:23;;;;;;;;;;;;;;;;;;5052947;28;19909;-44
2023/03/10 00:39:49;;;;;;;;;;;;;;;;;;5065976;28;19970;-43
2023/03/10 00:42:15;;;;;;;;;;;;;;;;;;5072228;28;20382;-43
2023/03/10 00:44:41;;;;;;;;;;;;;;;;;;5063333;28;19919;-43
2023/03/10 00:47:07;;;;;;;;;;;;;;;;;;5072642;28;19928;-44
2023/03/10 00:49:33;;;;;;;;;;;;;;;;;;5072010;28;19953;-44
2023/03/10 00:51:59;;;;;;;;;;;;;;;;;;5072741;28;19912;-43
2023/03/10 00:54:25;;;;;;;;;;;;;;;;;;5063418;28;19919;-43
2023/03/10 00:56:51;;;;;;;;;;;;;;;;;;5064973;28;19963;-43
2023/03/10 00:59:17;;;;;;;;;;;;;;;;;;5071459;28;19965;-45
2023/03/10 01:01:42;;;;;;;;;;;;;;;;;;5055670;28;19947;-43
2023/03/10 01:04:08;;;;;;;;;;;;;;;;;;5060609;28;20268;-43
2023/03/10 01:06:34;;;;;;;;;;;;;;;;;;5062188;28;19915;-43
2023/03/10 01:09:00;;;;;;;;;;;;;;;;;;5071258;28;20366;-44
2023/03/10 01:11:26;;;;;;;;;;;;;;;;;;5071708;28;19912;-44
2023/03/10 01:13:52;;;;;;;;;;;;;;;;;;5065843;28;19916;-44
2023/03/10 01:16:18;;;;;;;;;;;;;;;;;;5069583;28;19999;-45
2023/03/10 01:18:43;;;;;;;;;;;;;;;;;;5071147;28;20382;-43
2023/03/10 01:21:09;;;;;;;;;;;;;;;;;;5072333;28;19954;-43
2023/03/10 01:23:35;;;;;;;;;;;;;;;;;;5056440;28;19908;-43
2023/03/10 01:26:01;;;;;;;;;;;;;;;;;;5068652;28;19917;-45
2023/03/10 01:28:27;;;;;;;;;;;;;;;;;;5060363;28;19912;-43
2023/03/10 01:30:53;;;;;;;;;;;;;;;;;;5068649;28;19915;-43
2023/03/10 01:33:19;;;;;;;;;;;;;;;;;;5071704;28;19966;-44
2023/03/10 01:35:44;;;;;;;;;;;;;;;;;;5068063;28;19913;-43
2023/03/10 01:38:10;;;;;;;;;;;;;;;;;;5053364;28;20317;-44
2023/03/10 01:40:36;;;;;;;;;;;;;;;;;;5068334;28;20105;-44
2023/03/10 01:43:02;;;;;;;;;;;;;;;;;;5055324;28;19908;-43
2023/03/10 01:45:28;;;;;;;;;;;;;;;;;;5065271;28;20072;-43
2023/03/10 01:47:54;;;;;;;;;;;;;;;;;;5061934;28;19923;-43
2023/03/10 01:50:20;;;;;;;;;;;;;;;;;;5070738;28;20675;-44
2023/03/10 01:52:45;;;;;;;;;;;;;;;;;;5047545;28;19912;-43
2023/03/10 01:55:11;;;;;;;;;;;;;;;;;;5052434;28;19924;-43
2023/03/10 01:57:37;;;;;;;;;;;;;;;;;;5069045;28;20308;-44
2023/03/10 02:00:06;;;;;;;;;;;;;;;;;;5071539;28;19908;-43
2023/03/10 02:02:32;;;;;;;;;;;;;;;;;;5065262;28;19924;-44
2023/03/10 02:04:58;;;;;;;;;;;;;;;;;;5069956;28;20378;-44
2023/03/10 02:07:24;;;;;;;;;;;;;;;;;;5069396;28;19912;-44
2023/03/10 02:09:50;;;;;;;;;;;;;;;;;;5061590;28;19908;-44
2023/03/10 02:12:16;;;;;;;;;;;;;;;;;;5066606;28;20006;-46
2023/03/10 02:14:41;;;;;;;;;;;;;;;;;;5070152;28;19920;-45
2023/03/10 02:17:07;;;;;;;;;;;;;;;;;;5070548;28;19915;-45
2023/03/10 02:19:34;;;;;;;;;;;;;;;;;;5064661;28;20004;-43
2023/03/10 02:22:00;;;;;;;;;;;;;;;;;;5059714;28;19916;-44
2023/03/10 02:24:26;;;;;;;;;;;;;;;;;;5059730;28;19913;-44
2023/03/10 02:26:52;;;;;;;;;;;;;;;;;;5071264;28;19909;-46
2023/03/10 02:29:17;;;;;;;;;;;;;;;;;;5068734;28;19977;-44
2023/03/10 02:31:43;;;;;;;;;;;;;;;;;;5070193;28;19908;-46
2023/03/10 02:34:09;;;;;;;;;;;;;;;;;;5070762;28;20394;-44
2023/03/10 02:36:35;;;;;;;;;;;;;;;;;;5067495;28;19909;-46
2023/03/10 02:39:01;;;;;;;;;;;;;;;;;;5052798;28;20371;-47
2023/03/10 02:41:27;;;;;;;;;;;;;;;;;;5067793;28;20006;-47
2023/03/10 02:43:53;;;;;;;;;;;;;;;;;;5056002;28;19931;-44
2023/03/10 02:46:19;;;;;;;;;;;;;;;;;;5062519;28;19916;-44
2023/03/10 02:48:45;;;;;;;;;;;;;;;;;;5061297;28;19923;-45
2023/03/10 02:51:11;;;;;;;;;;;;;;;;;;5068326;28;20001;-43
2023/03/10 02:53:36;;;;;;;;;;;;;;;;;;5070431;28;20009;-43
2023/03/10 02:56:02;;;;;;;;;;;;;;;;;;5063542;28;20388;-43
2023/03/10 02:58:28;;;;;;;;;;;;;;;;;;5069762;28;19915;-43
2023/03/10 03:00:54;;;;;;;;;;;;;;;;;;5071001;28;19999;-44
2023/03/10 03:03:20;;;;;;;;;;;;;;;;;;5062164;28;20494;-44
2023/03/10 03:05:46;;;;;;;;;;;;;;;;;;5054690;28;19909;-44
2023/03/10 03:08:12;;;;;;;;;;;;;;;;;;5064305;28;19908;-44
2023/03/10 03:10:38;;;;;;;;;;;;;;;;;;5060041;28;19904;-45
2023/03/10 03:13:04;;;;;;;;;;;;;;;;;;5052616;28;19913;-43
2023/03/10 03:15:30;;;;;;;;;;;;;;;;;;5067510;28;19936;-43
2023/03/10 03:17:57;;;;;;;;;;;;;;;;;;5069609;28;20003;-43
2023/03/10 03:20:23;;;;;;;;;;;;;;;;;;5069555;28;19982;-43
2023/03/10 03:22:49;;;;;;;;;;;;;;;;;;5072711;28;19935;-44
2023/03/10 03:25:15;;;;;;;;;;;;;;;;;;5074313;28;19970;-43
2023/03/10 03:27:40;;;;;;;;;;;;;;;;;;5064069;28;19924;-43
2023/03/10 03:30:06;;;;;;;;;;;;;;;;;;5067396;28;19919;-43
2023/03/10 03:32:32;;;;;;;;;;;;;;;;;;5067633;28;19996;-43
2023/03/10 03:34:58;;;;;;;;;;;;;;;;;;5067601;28;20274;-43
2023/03/10 03:37:24;;;;;;;;;;;;;;;;;;5059966;28;19970;-43
2023/03/10 03:39:50;;;;;;;;;;;;;;;;;;5065709;28;20405;-43
2023/03/10 03:42:16;;;;;;;;;;;;;;;;;;5067839;28;19947;-46
2023/03/10 03:44:42;;;;;;;;;;;;;;;;;;5065870;28;20286;-43
2023/03/10 03:47:09;;;;;;;;;;;;;;;;;;5072087;28;20400;-43
2023/03/10 03:49:35;;;;;;;;;;;;;;;;;;5057215;28;19992;-44
2023/03/10 03:52:01;;;;;;;;;;;;;;;;;;5068818;28;20007;-44
2023/03/10 03:54:27;;;;;;;;;;;;;;;;;;5062128;28;19920;-43
2023/03/10 03:56:52;;;;;;;;;;;;;;;;;;5067492;28;19947;-44
2023/03/10 03:59:18;;;;;;;;;;;;;;;;;;5073737;28;19954;-44
2023/03/10 04:01:44;;;;;;;;;;;;;;;;;;5065423;28;19950;-43
2023/03/10 04:04:10;;;;;;;;;;;;;;;;;;5071672;28;19908;-43
2023/03/10 04:06:36;;;;;;;;;;;;;;;;;;5070448;28;20367;-43
2023/03/10 04:09:02;;;;;;;;;;;;;;;;;;5073509;28;19915;-44
2023/03/10 04:11:28;;;;;;;;;;;;;;;;;;5072787;28;19908;-43
2023/03/10 04:13:54;;;;;;;;;;;;;;;;;;5054586;28;19916;-43
2023/03/10 04:16:20;;;;;;;;;;;;;;;;;;5068962;28;19919;-44
2023/03/10 04:18:46;;;;;;;;;;;;;;;;;;5062865;28;19909;-45
2023/03/10 04:21:11;;;;;;;;;;;;;;;;;;5054442;28;19959;-43
2023/03/10 04:23:40;;;;;;;;;;;;;;;;;;5071466;28;20454;-43
2023/03/10 04:26:06;;;;;;;;;;;;;;;;;;5071787;28;19919;-43
2023/03/10 04:28:32;;;;;;;;;;;;;;;;;;5073060;28;19909;-43
2023/03/10 04:30:58;;;;;;;;;;;;;;;;;;5071552;28;20313;-43
2023/03/10 04:33:24;;;;;;;;;;;;;;;;;;5071549;28;19913;-43
2023/03/10 04:35:51;;;;;;;;;;;;;;;;;;5068097;28;20027;-44
2023/03/10 04:38:17;;;;;;;;;;;;;;;;;;5067997;28;19912;-44
2023/03/10 04:40:43;;;;;;;;;;;;;;;;;;5077604;28;19915;-45
2023/03/10 04:43:09;;;;;;;;;;;;;;;;;;5068516;28;19908;-43
2023/03/10 04:45:35;;;;;;;;;;;;;;;;;;5070449;28;20379;-44
2023/03/10 04:48:01;;;;;;;;;;;;;;;;;;5072926;28;19920;-43
2023/03/10 04:50:27;;;;;;;;;;;;;;;;;;5071670;28;19913;-43
2023/03/10 04:52:53;;;;;;;;;;;;;;;;;;5073224;28;20381;-43
2023/03/10 04:55:19;;;;;;;;;;;;;;;;;;5061255;28;19918;-43
2023/03/10 04:57:45;;;;;;;;;;;;;;;;;;5071459;28;19909;-45
2023/03/10 05:00:11;;;;;;;;;;;;;;;;;;5059674;28;19908;-44
2023/03/10 05:02:37;;;;;;;;;;;;;;;;;;5072405;28;20517;-43
2023/03/10 05:05:03;;;;;;;;;;;;;;;;;;5070577;28;19919;-44
2023/03/10 05:07:29;;;;;;;;;;;;;;;;;;5069812;28;19909;-44
2023/03/10 05:09:54;;;;;;;;;;;;;;;;;;5072619;28;19962;-43
2023/03/10 05:12:20;;;;;;;;;;;;;;;;;;5057606;28;20052;-44
2023/03/10 05:14:46;;;;;;;;;;;;;;;;;;5062319;28;19917;-44
2023/03/10 05:17:12;;;;;;;;;;;;;;;;;;5068406;28;19915;-44
2023/03/10 05:19:38;;;;;;;;;;;;;;;;;;5057495;28;19935;-46
2023/03/10 05:22:04;;;;;;;;;;;;;;;;;;5062853;28;19909;-44
2023/03/10 05:24:30;;;;;;;;;;;;;;;;;;5071527;28;19962;-44
2023/03/10 05:26:55;;;;;;;;;;;;;;;;;;5066426;28;19909;-45
2023/03/10 05:29:21;;;;;;;;;;;;;;;;;;5058618;28;20315;-45
2023/03/10 05:31:47;;;;;;;;;;;;;;;;;;5069451;28;19916;-44
2023/03/10 05:34:13;;;;;;;;;;;;;;;;;;5059966;28;20275;-43
2023/03/10 05:36:39;;;;;;;;;;;;;;;;;;5065196;28;19905;-43
2023/03/10 05:39:05;;;;;;;;;;;;;;;;;;5072064;28;19981;-43
2023/03/10 05:41:31;;;;;;;;;;;;;;;;;;5061054;28;19916;-43
2023/03/10 05:43:57;;;;;;;;;;;;;;;;;;5072214;28;20015;-43
2023/03/10 05:46:23;;;;;;;;;;;;;;;;;;5055007;28;19915;-44
2023/03/10 05:48:49;;;;;;;;;;;;;;;;;;5064460;28;20370;-43
2023/03/10 05:51:15;;;;;;;;;;;;;;;;;;5070514;28;19948;-43
2023/03/10 05:53:41;;;;;;;;;;;;;;;;;;5070800;28;19927;-45
2023/03/10 05:56:06;;;;;;;;;;;;;;;;;;5066347;28;19977;-43
2023/03/10 05:58:32;;;;;;;;;;;;;;;;;;5070724;28;19915;-43
2023/03/10 06:00:58;;;;;;;;;;;;;;;;;;5070703;28;19912;-43
2023/03/10 06:03:24;;;;;;;;;;;;;;;;;;5066363;28;19908;-43
2023/03/10 06:05:50;;;;;;;;;;;;;;;;;;5071163;28;19916;-45
2023/03/10 06:08:16;;;;;;;;;;;;;;;;;;5071529;28;20412;-45
2023/03/10 06:10:42;;;;;;;;;;;;;;;;;;5065088;28;19908;-44
2023/03/10 06:13:08;;;;;;;;;;;;;;;;;;5053035;28;19913;-45
2023/03/10 06:15:34;;;;;;;;;;;;;;;;;;5040780;28;19940;-46
2023/03/10 06:17:59;;;;;;;;;;;;;;;;;;5076313;28;20318;-45
2023/03/10 06:20:25;;;;;;;;;;;;;;;;;;5059923;28;19909;-46
2023/03/10 06:22:52;;;;;;;;;;;;;;;;;;5065944;28;20290;-45
2023/03/10 06:25:18;;;;;;;;;;;;;;;;;;5068208;28;20255;-46
2023/03/10 06:27:43;;;;;;;;;;;;;;;;;;5061614;28;19962;-44
2023/03/10 06:30:09;;;;;;;;;;;;;;;;;;5068527;28;19916;-49
2023/03/10 06:32:35;;;;;;;;;;;;;;;;;;5064774;28;19916;-44
2023/03/10 06:35:01;;;;;;;;;;;;;;;;;;5067921;28;19912;-44
2023/03/10 06:37:27;;;;;;;;;;;;;;;;;;5065776;28;20372;-46
2023/03/10 06:39:53;;;;;;;;;;;;;;;;;;5061264;28;20267;-46
2023/03/10 06:42:19;;;;;;;;;;;;;;;;;;5059076;28;20009;-46
2023/03/10 06:44:45;;;;;;;;;;;;;;;;;;5049956;28;20377;-46
2023/03/10 06:47:11;;;;;;;;;;;;;;;;;;5064268;28;20011;-43
2023/03/10 06:49:36;;;;;;;;;;;;;;;;;;5066981;28;19918;-45
2023/03/10 06:52:02;;;;;;;;;;;;;;;;;;5062662;28;19908;-43
2023/03/10 06:54:28;;;;;;;;;;;;;;;;;;5061927;28;19985;-45
2023/03/10 06:56:54;;;;;;;;;;;;;;;;;;5064423;28;19914;-46
2023/03/10 06:59:20;;;;;;;;;;;;;;;;;;5067697;28;20270;-48
2023/03/10 07:01:46;;;;;;;;;;;;;;;;;;5070248;28;19908;-44
2023/03/10 07:04:12;;;;;;;;;;;;;;;;;;5070763;28;19923;-45
2023/03/10 07:06:38;;;;;;;;;;;;;;;;;;5069835;28;19904;-45
2023/03/10 07:09:04;;;;;;;;;;;;;;;;;;5069454;28;19915;-44
2023/03/10 07:11:30;;;;;;;;;;;;;;;;;;5056148;28;19909;-47
2023/03/10 07:13:55;;;;;;;;;;;;;;;;;;5069287;28;20003;-45
2023/03/10 07:16:21;;;;;;;;;;;;;;;;;;5040667;28;20287;-45
2023/03/10 07:18:47;;;;;;;;;;;;;;;;;;5069257;28;19913;-46
2023/03/10 07:21:13;;;;;;;;;;;;;;;;;;5070751;28;19908;-48
2023/03/10 07:23:39;;;;;;;;;;;;;;;;;;5051721;28;19904;-44
2023/03/10 07:26:07;;;;;;;;;;;;;;;;;;5051914;28;19916;-44
2023/03/10 07:28:33;;;;;;;;;;;;;;;;;;5051412;28;19916;-45
2023/03/10 07:30:59;;;;;;;;;;;;;;;;;;5063830;28;19908;-45
2023/03/10 07:33:25;;;;;;;;;;;;;;;;;;5069743;28;19943;-44
2023/03/10 07:35:51;;;;;;;;;;;;;;;;;;5065639;28;19948;-45
2023/03/10 07:38:17;;;;;;;;;;;;;;;;;;5069201;28;21864;-46
2023/03/10 07:40:42;;;;;;;;;;;;;;;;;;5061566;28;19915;-45
2023/03/10 07:43:08;;;;;;;;;;;;;;;;;;5053731;28;19909;-45
2023/03/10 07:45:34;;;;;;;;;;;;;;;;;;5066684;28;19909;-49
2023/03/10 07:48:00;;;;;;;;;;;;;;;;;;5068067;28;20035;-48
2023/03/10 07:50:26;;;;;;;;;;;;;;;;;;5069469;28;19912;-45
2023/03/10 07:52:53;;;;;;;;;;;;;;;;;;5063245;28;20348;-47
2023/03/10 07:55:19;;;;;;;;;;;;;;;;;;5063950;28;19948;-46
2023/03/10 07:57:45;;;;;;;;;;;;;;;;;;5058651;28;20393;-45
2023/03/10 08:00:11;;;;;;;;;;;;;;;;;;5065535;28;19912;-46
2023/03/10 08:02:37;;;;;;;;;;;;;;;;;;5057815;28;19913;-48
2023/03/10 08:05:03;;;;;;;;;;;;;;;;;;5060016;28;19915;-45
2023/03/10 08:07:30;;;;;;;;;;;;;;;;;;5050238;28;19916;-46
2023/03/10 08:09:56;;;;;;;;;;;;;;;;;;5056915;28;19920;-44
2023/03/10 08:12:22;;;;;;;;;;;;;;;;;;5057211;28;19913;-47
2023/03/10 08:14:49;;;;;;;;;;;;;;;;;;5057965;28;19917;-44
2023/03/10 08:17:15;;;;;;;;;;;;;;;;;;5070737;28;19961;-47
2023/03/10 08:19:41;;;;;;;;;;;;;;;;;;5071099;28;19916;-47
2023/03/10 08:22:07;;;;;;;;;;;;;;;;;;5073412;28;19912;-50
2023/03/10 08:24:33;;;;;;;;;;;;;;;;;;5070378;28;20396;-48
2023/03/10 08:26:58;;;;;;;;;;;;;;;;;;5064128;28;20301;-46
2023/03/10 08:29:24;;;;;;;;;;;;;;;;;;5065548;28;19955;-45
2023/03/10 08:31:50;;;;;;;;;;;;;;;;;;5064622;28;20362;-45
2023/03/10 08:34:16;;;;;;;;;;;;;;;;;;5072059;28;19920;-46
2023/03/10 08:36:42;;;;;;;;;;;;;;;;;;5060542;28;19912;-45
2023/03/10 08:39:08;;;;;;;;;;;;;;;;;;5057108;28;19909;-44
2023/03/10 08:41:34;;;;;;;;;;;;;;;;;;5063058;28;19987;-44
2023/03/10 08:44:00;;;;;;;;;;;;;;;;;;5058920;28;19912;-44
2023/03/10 08:46:26;;;;;;;;;;;;;;;;;;5064183;28;20027;-45
2023/03/10 08:48:52;;;;;;;;;;;;;;;;;;5058618;28;20334;-44
2023/03/10 08:51:18;;;;;;;;;;;;;;;;;;5057345;28;19940;-46
2023/03/10 08:53:45;;;;;;;;;;;;;;;;;;5057003;28;19981;-44
2023/03/10 08:56:11;;;;;;;;;;;;;;;;;;5071890;28;20375;-44
2023/03/10 08:58:37;;;;;;;;;;;;;;;;;;5060231;28;19955;-45
2023/03/10 09:01:03;;;;;;;;;;;;;;;;;;5064728;28;19909;-44
2023/03/10 09:03:28;;;;;;;;;;;;;;;;;;5072673;28;20351;-44
2023/03/10 09:05:54;;;;;;;;;;;;;;;;;;5068104;28;19919;-44
2023/03/10 09:08:20;;;;;;;;;;;;;;;;;;5058748;28;19908;-45
2023/03/10 09:10:46;;;;;;;;;;;;;;;;;;5054190;28;19913;-44
2023/03/10 09:13:12;;;;;;;;;;;;;;;;;;5057036;28;20393;-44
2023/03/10 09:15:40;;;;;;;;;;;;;;;;;;5066414;28;19999;-44
2023/03/10 09:18:06;;;;;;;;;;;;;;;;;;5068987;28;20034;-44
2023/03/10 09:20:31;;;;;;;;;;;;;;;;;;5069613;28;20406;-46
2023/03/10 09:22:57;;;;;;;;;;;;;;;;;;5071489;28;20377;-44
2023/03/10 09:25:23;;;;;;;;;;;;;;;;;;5068531;28;20002;-44
2023/03/10 09:27:49;;;;;;;;;;;;;;;;;;5068348;28;20300;-46
2023/03/10 09:30:16;;;;;;;;;;;;;;;;;;5067372;28;19995;-44
2023/03/10 09:32:43;;;;;;;;;;;;;;;;;;5050112;28;20266;-44
2023/03/10 09:35:09;;;;;;;;;;;;;;;;;;5069572;28;19912;-45
2023/03/10 09:37:35;;;;;;;;;;;;;;;;;;5070559;28;19908;-45
2023/03/10 09:40:01;;;;;;;;;;;;;;;;;;5064627;28;19908;-44
2023/03/10 09:42:27;;;;;;;;;;;;;;;;;;5058088;28;20387;-45
2023/03/10 09:44:52;;;;;;;;;;;;;;;;;;5056850;28;19919;-44
2023/03/10 09:47:18;;;;;;;;;;;;;;;;;;5069075;28;19958;-45
2023/03/10 09:49:44;;;;;;;;;;;;;;;;;;5070766;28;19908;-44
2023/03/10 09:52:10;;;;;;;;;;;;;;;;;;5069060;28;20359;-44
2023/03/10 09:54:39;;;;;;;;;;;;;;;;;;5070116;28;20039;-44
2023/03/10 09:57:05;;;;;;;;;;;;;;;;;;5066655;28;19922;-45
2023/03/10 09:59:31;;;;;;;;;;;;;;;;;;5065336;28;19930;-44
2023/03/10 10:01:57;;;;;;;;;;;;;;;;;;5062422;28;19916;-44
2023/03/10 10:04:22;;;;;;;;;;;;;;;;;;5064591;28;19956;-46
2023/03/10 10:06:49;;;;;;;;;;;;;;;;;;5056504;28;19908;-44
2023/03/10 10:09:15;;;;;;;;;;;;;;;;;;5060497;28;19908;-45
2023/03/10 10:11:41;;;;;;;;;;;;;;;;;;5070717;28;19965;-46
2023/03/10 10:14:07;;;;;;;;;;;;;;;;;;5071554;28;20425;-44
2023/03/10 10:16:33;;;;;;;;;;;;;;;;;;5069168;28;19920;-44
2023/03/10 10:18:59;;;;;;;;;;;;;;;;;;5070106;28;20046;-44
2023/03/10 10:21:25;;;;;;;;;;;;;;;;;;5060235;28;19959;-44
2023/03/10 10:23:51;;;;;;;;;;;;;;;;;;5058741;28;19916;-44
2023/03/10 10:26:17;;;;;;;;;;;;;;;;;;5067805;28;19912;-47
2023/03/10 10:28:43;;;;;;;;;;;;;;;;;;5070648;28;19931;-47
2023/03/10 10:31:09;;;;;;;;;;;;;;;;;;5058879;28;20378;-45
2023/03/10 10:33:34;;;;;;;;;;;;;;;;;;5070730;28;19919;-46
2023/03/10 10:36:00;;;;;;;;;;;;;;;;;;5065645;28;19995;-44
2023/03/10 10:38:26;;;;;;;;;;;;;;;;;;5066698;28;19912;-45
2023/03/10 10:40:52;;;;;;;;;;;;;;;;;;5067231;28;19954;-45
2023/03/10 10:43:18;;;;;;;;;;;;;;;;;;5069742;28;19912;-47
2023/03/10 10:45:44;;;;;;;;;;;;;;;;;;5061205;28;20309;-45
2023/03/10 10:48:10;;;;;;;;;;;;;;;;;;5066901;28;20436;-45
2023/03/10 10:50:36;;;;;;;;;;;;;;;;;;5069720;28;19913;-45
2023/03/10 10:53:02;;;;;;;;;;;;;;;;;;5068820;28;20267;-46
2023/03/10 10:55:28;;;;;;;;;;;;;;;;;;5054408;28;19921;-46
2023/03/10 10:57:54;;;;;;;;;;;;;;;;;;5070841;28;20347;-46
2023/03/10 11:00:20;;;;;;;;;;;;;;;;;;5069761;28;20282;-46
2023/03/10 11:02:46;;;;;;;;;;;;;;;;;;5069235;28;19912;-45
2023/03/10 11:05:12;;;;;;;;;;;;;;;;;;5058840;28;19915;-44
2023/03/10 11:07:38;;;;;;;;;;;;;;;;;;5068060;28;19904;-45
2023/03/10 11:10:04;;;;;;;;;;;;;;;;;;5061844;28;19909;-46
2023/03/10 11:12:30;;;;;;;;;;;;;;;;;;5067875;28;20046;-46
2023/03/10 11:14:56;;;;;;;;;;;;;;;;;;5070726;28;19912;-45
2023/03/10 11:17:22;;;;;;;;;;;;;;;;;;5069110;28;19908;-46
2023/03/10 11:19:51;;;;;;;;;;;;;;;;;;5058705;28;19909;-44
2023/03/10 11:22:16;;;;;;;;;;;;;;;;;;5052042;28;19912;-45
2023/03/10 11:24:42;;;;;;;;;;;;;;;;;;5061292;28;20049;-44
2023/03/10 11:27:08;;;;;;;;;;;;;;;;;;5070379;28;19909;-45
2023/03/10 11:29:34;;;;;;;;;;;;;;;;;;5043193;28;19908;-48
2023/03/10 11:32:00;;;;;;;;;;;;;;;;;;5064121;28;19912;-45
2023/03/10 11:34:29;;;;;;;;;;;;;;;;;;5069234;28;19916;-45
2023/03/10 11:36:55;;;;;;;;;;;;;;;;;;5070531;28;19908;-45
2023/03/10 11:39:20;;;;;;;;;;;;;;;;;;5066849;28;19970;-45
2023/03/10 11:41:46;;;;;;;;;;;;;;;;;;5074527;28;19955;-43
2023/03/10 11:44:12;;;;;;;;;;;;;;;;;;5067696;28;19931;-43
2023/03/10 11:46:38;;;;;;;;;;;;;;;;;;5054946;28;19904;-45
2023/03/10 11:49:04;;;;;;;;;;;;;;;;;;5061602;28;20266;-42
2023/03/10 11:51:30;;;;;;;;;;;;;;;;;;5071030;28;19916;-43
2023/03/10 11:53:57;;;;;;;;;;;;;;;;;;5067711;28;19916;-45
2023/03/10 11:56:22;;;;;;;;;;;;;;;;;;5060399;28;20374;-43
2023/03/10 11:58:48;;;;;;;;;;;;;;;;;;5066984;28;19908;-43
2023/03/10 12:01:14;;;;;;;;;;;;;;;;;;5063975;28;19909;-43
2023/03/10 12:03:40;;;;;;;;;;;;;;;;;;5055246;28;19986;-43
2023/03/10 12:06:06;;;;;;;;;;;;;;;;;;5069320;28;19936;-43
2023/03/10 12:08:32;;;;;;;;;;;;;;;;;;5070054;28;19909;-43
2023/03/10 12:10:58;;;;;;;;;;;;;;;;;;5066130;28;19915;-43
2023/03/10 12:13:24;;;;;;;;;;;;;;;;;;5070221;28;19963;-42
2023/03/10 12:15:50;;;;;;;;;;;;;;;;;;5065621;28;19920;-46
2023/03/10 12:18:15;;;;;;;;;;;;;;;;;;5070231;28;19943;-43
2023/03/10 12:20:41;;;;;;;;;;;;;;;;;;5065776;28;19912;-43
2023/03/10 12:23:07;;;;;;;;;;;;;;;;;;5058980;28;20412;-41
2023/03/10 12:25:36;;;;;;;;;;;;;;;;;;5063744;28;19908;-42
2023/03/10 12:28:02;;;;;;;;;;;;;;;;;;5071413;28;19908;-47
2023/03/10 12:30:28;;;;;;;;;;;;;;;;;;5067254;28;19931;-45
2023/03/10 12:32:54;;;;;;;;;;;;;;;;;;5061728;28;19981;-42
2023/03/10 12:35:20;;;;;;;;;;;;;;;;;;5059779;28;19913;-45
2023/03/10 12:37:46;;;;;;;;;;;;;;;;;;5059252;28;19912;-42
2023/03/10 12:40:12;;;;;;;;;;;;;;;;;;5068206;28;20370;-44
2023/03/10 12:42:40;;;;;;;;;;;;;;;;;;5070235;28;19904;-43
2023/03/10 12:45:06;;;;;;;;;;;;;;;;;;5056147;28;19909;-42
2023/03/10 12:47:32;;;;;;;;;;;;;;;;;;5063038;28;19927;-42
2023/03/10 12:49:57;;;;;;;;;;;;;;;;;;5059435;28;19909;-45
2023/03/10 12:52:23;;;;;;;;;;;;;;;;;;5055091;28;19958;-44
2023/03/10 12:54:49;;;;;;;;;;;;;;;;;;5056586;28;19913;-43
2023/03/10 12:57:15;;;;;;;;;;;;;;;;;;5060218;28;19987;-43
2023/03/10 12:59:41;;;;;;;;;;;;;;;;;;5058916;28;19951;-44
2023/03/10 13:02:10;;;;;;;;;;;;;;;;;;5060452;28;20398;-44
2023/03/10 13:04:36;;;;;;;;;;;;;;;;;;5060826;28;19999;-42
2023/03/10 13:07:02;;;;;;;;;;;;;;;;;;5064158;28;20234;-43
2023/03/10 13:09:28;;;;;;;;;;;;;;;;;;5057075;28;19909;-45
2023/03/10 13:11:54;;;;;;;;;;;;;;;;;;5068201;28;20003;-46
2023/03/10 13:14:20;;;;;;;;;;;;;;;;;;5057172;28;19912;-44
2023/03/10 13:16:46;;;;;;;;;;;;;;;;;;5060321;28;19912;-45
2023/03/10 13:19:12;;;;;;;;;;;;;;;;;;5061587;28;19912;-44
2023/03/10 13:21:38;;;;;;;;;;;;;;;;;;5057458;28;19912;-42
2023/03/10 13:24:04;;;;;;;;;;;;;;;;;;5059700;28;19909;-42
2023/03/10 13:26:29;;;;;;;;;;;;;;;;;;5055934;28;19962;-42
2023/03/10 13:28:55;;;;;;;;;;;;;;;;;;5053296;28;20390;-45
2023/03/10 13:31:22;;;;;;;;;;;;;;;;;;5058811;28;19924;-42
2023/03/10 13:33:48;;;;;;;;;;;;;;;;;;5054757;28;20015;-43
2023/03/10 13:36:14;;;;;;;;;;;;;;;;;;5065738;28;19917;-44
2023/03/10 13:38:40;;;;;;;;;;;;;;;;;;5059878;28;19908;-44
2023/03/10 13:41:06;;;;;;;;;;;;;;;;;;5061403;28;19948;-46
2023/03/10 13:43:32;;;;;;;;;;;;;;;;;;5059669;28;19908;-44
2023/03/10 13:45:58;;;;;;;;;;;;;;;;;;5052912;28;19915;-47
2023/03/10 13:48:24;;;;;;;;;;;;;;;;;;5052854;28;19916;-46
2023/03/10 13:50:50;;;;;;;;;;;;;;;;;;5053753;28;20330;-47
2023/03/10 13:53:15;;;;;;;;;;;;;;;;;;5057056;28;19947;-44
2023/03/10 13:55:41;;;;;;;;;;;;;;;;;;5055051;28;19912;-47
2023/03/10 13:58:07;;;;;;;;;;;;;;;;;;5068502;28;19908;-45
2023/03/10 14:00:33;;;;;;;;;;;;;;;;;;5062662;28;19913;-51
2023/03/10 14:02:59;;;;;;;;;;;;;;;;;;5057188;28;19915;-51
2023/03/10 14:05:25;;;;;;;;;;;;;;;;;;5051582;28;20291;-53
2023/03/10 14:07:51;;;;;;;;;;;;;;;;;;5056990;28;19996;-52
2023/03/10 14:10:17;;;;;;;;;;;;;;;;;;5059529;28;19912;-48
2023/03/10 14:12:43;;;;;;;;;;;;;;;;;;5054934;28;19920;-51
2023/03/10 14:15:09;;;;;;;;;;;;;;;;;;5055620;28;19913;-47
2023/03/10 14:17:36;;;;;;;;;;;;;;;;;;5056992;28;19916;-48
2023/03/10 14:20:03;;;;;;;;;;;;;;;;;;5058972;28;19916;-51
2023/03/10 14:22:29;;;;;;;;;;;;;;;;;;5053567;28;19908;-52
2023/03/10 14:24:55;;;;;;;;;;;;;;;;;;5053361;28;19909;-56
2023/03/10 14:27:21;;;;;;;;;;;;;;;;;;5061404;28;20028;-50
2023/03/10 14:29:48;;;;;;;;;;;;;;;;;;5053835;28;19981;-51
2023/03/10 14:32:14;;;;;;;;;;;;;;;;;;5056875;28;19916;-50
2023/03/10 14:34:40;;;;;;;;;;;;;;;;;;5061153;28;20514;-53
2023/03/10 14:37:06;;;;;;;;;;;;;;;;;;5056206;28;20298;-51
2023/03/10 14:39:33;;;;;;;;;;;;;;;;;;5055628;28;19916;-52
2023/03/10 14:41:59;;;;;;;;;;;;;;;;;;5059428;28;19908;-50
2023/03/10 14:44:25;;;;;;;;;;;;;;;;;;5063736;28;19961;-52
2023/03/10 14:46:51;;;;;;;;;;;;;;;;;;5064341;28;20003;-54
2023/03/10 14:49:17;;;;;;;;;;;;;;;;;;5057050;28;19987;-47
2023/03/10 14:51:43;;;;;;;;;;;;;;;;;;5057202;28;19999;-54
2023/03/10 14:54:09;;;;;;;;;;;;;;;;;;5056290;28;19959;-53
2023/03/10 14:56:35;;;;;;;;;;;;;;;;;;5060843;28;19914;-53
2023/03/10 14:59:01;;;;;;;;;;;;;;;;;;5055762;28;19908;-51
2023/03/10 15:01:27;;;;;;;;;;;;;;;;;;5056378;28;19954;-52
2023/03/10 15:03:52;;;;;;;;;;;;;;;;;;5068820;28;19955;-52
2023/03/10 15:06:18;;;;;;;;;;;;;;;;;;5059369;28;19914;-48
2023/03/10 15:08:44;;;;;;;;;;;;;;;;;;5057142;28;19926;-51
2023/03/10 15:11:10;;;;;;;;;;;;;;;;;;5052064;28;19915;-53
2023/03/10 15:13:36;;;;;;;;;;;;;;;;;;5056331;28;20079;-53
2023/03/10 15:16:02;;;;;;;;;;;;;;;;;;5060390;28;19908;-54
2023/03/10 15:18:28;;;;;;;;;;;;;;;;;;5070891;28;19915;-52
2023/03/10 15:20:57;;;;;;;;;;;;;;;;;;5069034;28;20207;-52
2023/03/10 15:23:23;;;;;;;;;;;;;;;;;;5060322;28;19912;-52
2023/03/10 15:25:50;;;;;;;;;;;;;;;;;;5060426;28;19909;-51
2023/03/10 15:28:16;;;;;;;;;;;;;;;;;;5059477;28;19923;-52
2023/03/10 15:30:42;;;;;;;;;;;;;;;;;;5071427;28;19908;-54
2023/03/10 15:33:09;;;;;;;;;;;;;;;;;;5069040;28;20378;-48
2023/03/10 15:35:35;;;;;;;;;;;;;;;;;;5070346;28;20374;-52
2023/03/10 15:38:01;;;;;;;;;;;;;;;;;;5071805;28;20001;-50
2023/03/10 15:40:27;;;;;;;;;;;;;;;;;;5066174;28;19908;-53
2023/03/10 15:42:55;;;;;;;;;;;;;;;;;;5072775;28;20369;-48
2023/03/10 15:45:20;;;;;;;;;;;;;;;;;;5064745;28;19913;-47
2023/03/10 15:47:46;;;;;;;;;;;;;;;;;;5055255;28;19947;-49
2023/03/10 15:50:12;;;;;;;;;;;;;;;;;;5062443;28;19908;-47
2023/03/10 15:52:38;;;;;;;;;;;;;;;;;;5069601;28;19909;-50
2023/03/10 15:55:04;;;;;;;;;;;;;;;;;;5057768;28;19917;-52
2023/03/10 15:57:30;;;;;;;;;;;;;;;;;;5064393;28;20007;-50
2023/03/10 15:59:56;;;;;;;;;;;;;;;;;;5071803;28;19936;-49
2023/03/10 16:02:22;;;;;;;;;;;;;;;;;;5066985;28;19915;-49
2023/03/10 16:04:48;;;;;;;;;;;;;;;;;;5071414;28;20327;-50
2023/03/10 16:07:13;;;;;;;;;;;;;;;;;;5072462;28;19920;-52
2023/03/10 16:09:39;;;;;;;;;;;;;;;;;;5069865;28;19915;-48
2023/03/10 16:12:05;;;;;;;;;;;;;;;;;;5071712;28;20255;-48
2023/03/10 16:14:31;;;;;;;;;;;;;;;;;;5065888;28;19913;-49
2023/03/10 16:16:57;;;;;;;;;;;;;;;;;;5071964;28;19912;-51
2023/03/10 16:19:23;;;;;;;;;;;;;;;;;;5072591;28;19909;-50
2023/03/10 16:21:51;;;;;;;;;;;;;;;;;;5060783;28;20410;-50
2023/03/10 16:24:17;;;;;;;;;;;;;;;;;;5067450;28;20373;-49
2023/03/10 16:26:43;;;;;;;;;;;;;;;;;;5062263;28;19908;-50
2023/03/10 16:29:08;;;;;;;;;;;;;;;;;;5053465;28;19909;-51
2023/03/10 16:31:34;;;;;;;;;;;;;;;;;;5067846;28;20389;-50
2023/03/10 16:34:00;;;;;;;;;;;;;;;;;;5072170;28;19938;-49
2023/03/10 16:36:26;;;;;;;;;;;;;;;;;;5057752;28;19917;-50